Time;durP1;ratioP1;P1;durP2;ratioP2;P2;SDS_P1;SDS_P2;PMS_P1;PMS_P2;Temp;Humidity;BMP_temperature;BMP_pressure;BME280_temperature;BME280_humidity;BME280_pressure;Samples;Min_cycle;Max_cycle;Signal;HPM_P1;HPM_P2
2023/05/15 00:00:01;;;;;;;51.25;48.58;;;;;;;11.09;78.51;97795.69;4983271;28;20069;-76
2023/05/15 00:02:26;;;;;;;54.67;51.95;;;;;;;10.44;81.44;97806.66;4980434;28;20027;-76
2023/05/15 00:04:52;;;;;;;66.97;63.63;;;;;;;10.38;82.78;97794.22;5000370;28;20042;-76
2023/05/15 00:07:17;;;;;;;69.50;66.13;;;;;;;11.00;80.01;97792.66;4982597;28;20035;-75
2023/05/15 00:09:43;;;;;;;64.28;61.08;;;;;;;10.95;78.97;97795.31;5004077;28;20031;-75
2023/05/15 00:12:08;;;;;;;66.25;62.80;;;;;;;10.69;80.58;97800.75;4976362;28;20507;-75
2023/05/15 00:15:08;;;;;;;68.38;64.97;;;;;;;10.55;81.08;97778.78;4995981;23;20042;-75
2023/05/15 00:17:34;;;;;;;60.40;57.50;;;;;;;10.66;78.69;97758.97;4979342;28;20509;-75
2023/05/15 00:29:27;;;;;;;58.95;55.97;;;;;;;10.77;79.49;97787.63;4994132;28;20189;-74
2023/05/15 00:31:53;;;;;;;61.95;58.95;;;;;;;10.74;79.35;97787.28;4974208;28;20525;-77
2023/05/15 00:34:19;;;;;;;62.42;59.17;;;;;;;10.67;79.41;97787.50;4969425;28;20534;-76
2023/05/15 00:36:44;;;;;;;63.45;60.25;;;;;;;10.76;79.01;97785.97;4967633;28;20084;-75
2023/05/15 00:39:10;;;;;;;64.85;61.70;;;;;;;10.65;79.65;97783.44;4970180;28;20030;-75
2023/05/15 00:41:36;;;;;;;64.93;61.85;;;;;;;10.79;79.70;97780.09;4966847;28;20040;-77
2023/05/15 00:44:01;;;;;;;66.20;62.92;;;;;;;11.12;78.82;97784.41;4976226;28;20058;-77
2023/05/15 00:46:27;;;;;;;66.93;63.55;;;;;;;11.20;79.71;97785.81;4980405;28;20499;-78
2023/05/15 00:48:53;;;;;;;62.92;59.83;;;;;;;11.22;79.66;97789.06;4977105;28;20160;-77
2023/05/15 00:51:18;;;;;;;63.35;60.15;;;;;;;11.01;80.12;97778.16;4988921;28;20029;-77
2023/05/15 00:53:43;;;;;;;62.10;59.10;;;;;;;11.17;79.17;97783.63;4973230;28;20022;-76
2023/05/15 00:56:11;;;;;;;67.15;63.85;;;;;;;11.05;80.53;97786.50;4976104;28;20039;-76
2023/05/15 00:58:37;;;;;;;65.07;61.80;;;;;;;11.11;80.44;97778.19;4973809;28;20041;-78
2023/05/15 01:01:03;;;;;;;63.65;60.38;;;;;;;10.98;80.78;97778.66;4970246;28;20033;-79
2023/05/15 01:03:28;;;;;;;67.97;64.68;;;;;;;11.08;81.08;97778.72;4957521;28;20022;-78
2023/05/15 01:05:54;;;;;;;70.90;67.40;;;;;;;10.97;80.72;97770.81;4993675;28;20033;-79
2023/05/15 01:08:25;;;;;;;68.72;65.25;;;;;;;11.13;80.99;97774.44;4974511;28;20026;-77
2023/05/15 01:10:50;;;;;;;71.72;68.22;;;;;;;11.27;79.49;97767.53;4970792;28;20450;-77
2023/05/15 01:13:19;;;;;;;64.07;60.78;;;;;;;11.31;79.60;97782.13;4969669;28;20030;-78
2023/05/15 01:15:46;;;;;;;62.30;59.28;;;;;;;11.22;79.44;97778.28;4973952;28;20068;-77
2023/05/15 01:18:11;;;;;;;67.53;64.00;;;;;;;11.00;80.25;97765.72;4956168;28;20025;-76
2023/05/15 01:20:47;;;;;;;71.03;67.43;;;;;;;10.76;80.90;97761.75;4967445;28;20034;-77
2023/05/15 01:23:39;;;;;;;74.05;70.38;;;;;;;10.76;81.51;97769.03;4996663;28;20038;-77
2023/05/15 01:26:20;;;;;;;73.20;69.80;;;;;;;10.89;80.96;97769.41;4993889;28;20144;-77
2023/05/15 01:29:00;;;;;;;69.78;66.38;;;;;;;10.93;80.42;97770.53;4967018;28;20034;-76
2023/05/15 01:31:28;;;;;;;68.47;65.20;;;;;;;10.98;80.61;97767.88;4967183;28;20089;-77
2023/05/15 01:33:58;;;;;;;72.70;69.05;;;;;;;11.10;80.79;97767.69;4970260;28;20026;-76
2023/05/15 01:36:31;;;;;;;73.18;69.47;;;;;;;10.68;82.34;97767.59;4967219;28;20536;-77
2023/05/15 01:39:00;;;;;;;77.07;73.18;;;;;;;10.54;83.08;97766.41;4994224;28;20042;-76
2023/05/15 01:41:34;;;;;;;77.40;73.32;;;;;;;10.62;82.70;97763.22;4968678;28;20309;-75
2023/05/15 01:44:10;;;;;;;76.68;72.72;;;;;;;10.88;81.87;97772.34;4987349;28;20034;-73
2023/05/15 01:46:38;;;;;;;71.97;68.10;;;;;;;11.04;81.69;97776.78;4974892;28;20053;-75
2023/05/15 01:49:07;;;;;;;70.97;67.47;;;;;;;11.27;80.54;97771.03;4970499;28;20396;-73
2023/05/15 01:51:32;;;;;;;70.72;67.00;;;;;;;11.10;81.16;97770.38;4982430;28;20040;-74
2023/05/15 01:53:58;;;;;;;68.20;64.78;;;;;;;11.41;80.08;97766.03;4980994;28;20025;-75
2023/05/15 01:56:25;;;;;;;72.38;68.68;;;;;;;10.92;81.13;97766.19;4975694;28;20041;-75
2023/05/15 01:58:51;;;;;;;66.25;62.75;;;;;;;10.78;81.74;97766.88;4970760;28;20080;-75
2023/05/15 02:01:17;;;;;;;69.20;65.72;;;;;;;10.64;82.07;97753.00;4962073;28;20041;-75
2023/05/15 02:03:44;;;;;;;70.32;66.82;;;;;;;10.80;81.79;97753.97;4961681;28;20117;-75
2023/05/15 02:06:10;;;;;;;71.80;68.20;;;;;;;10.95;81.50;97760.28;4974195;28;20117;-75
2023/05/15 02:08:36;;;;;;;68.65;65.35;;;;;;;10.79;81.92;97757.72;4954742;28;20028;-73
2023/05/15 02:11:02;;;;;;;67.15;63.83;;;;;;;10.73;81.60;97754.19;4978369;28;20116;-73
2023/05/15 02:13:28;;;;;;;68.95;65.35;;;;;;;10.68;82.07;97751.44;4966025;28;20118;-73
2023/05/15 02:15:53;;;;;;;70.80;67.40;;;;;;;10.84;81.68;97739.72;4972074;28;20042;-74
2023/05/15 02:18:19;;;;;;;69.47;65.97;;;;;;;10.70;82.09;97751.19;4987156;28;20033;-74
2023/05/15 02:20:44;;;;;;;70.30;66.85;;;;;;;10.74;82.12;97747.72;4961931;28;20460;-74
2023/05/15 02:23:10;;;;;;;69.72;66.25;;;;;;;10.55;82.44;97746.47;4966366;28;20018;-74
2023/05/15 02:26:12;;;;;;;69.85;66.18;;;;;;;10.82;82.07;97744.56;4971518;28;20124;-74
2023/05/15 02:28:53;;;;;;;69.43;66.05;;;;;;;10.90;81.42;97743.25;4972231;28;20073;-74
2023/05/15 02:31:29;;;;;;;68.72;65.22;;;;;;;10.90;81.92;97744.09;4974868;28;20113;-76
2023/05/15 02:34:12;;;;;;;69.47;65.97;;;;;;;10.92;81.39;97741.94;4950031;28;20614;-75
2023/05/15 02:36:39;;;;;;;66.75;63.38;;;;;;;10.90;81.21;97730.63;4982059;28;20042;-76
2023/05/15 02:39:05;;;;;;;67.07;63.67;;;;;;;10.93;81.51;97735.50;4952957;28;20373;-75
2023/05/15 02:41:31;;;;;;;67.65;64.15;;;;;;;10.57;83.14;97727.38;4971628;28;20029;-75
2023/05/15 02:43:59;;;;;;;69.68;66.10;;;;;;;10.48;82.91;97729.69;4952147;28;20040;-75
2023/05/15 02:46:24;;;;;;;66.28;62.88;;;;;;;10.44;83.23;97728.59;4983207;28;20396;-76
2023/05/15 02:48:50;;;;;;;66.00;62.45;;;;;;;10.28;83.30;97740.28;4956134;28;20030;-76
2023/05/15 02:51:16;;;;;;;69.50;65.78;;;;;;;10.37;83.25;97728.00;4975232;28;20455;-75
2023/05/15 02:53:42;;;;;;;70.57;66.95;;;;;;;10.37;82.87;97722.59;4946251;28;20031;-76
2023/05/15 02:56:07;;;;;;;69.22;65.82;;;;;;;10.45;82.53;97724.84;4974949;28;20548;-76
2023/05/15 02:58:33;;;;;;;67.50;64.00;;;;;;;10.34;82.38;97725.78;4987640;28;20483;-76
2023/05/15 03:00:59;;;;;;;67.88;64.55;;;;;;;10.32;82.90;97719.84;4968215;28;20065;-76
2023/05/15 03:03:24;;;;;;;68.45;64.88;;;;;;;10.43;82.31;97727.00;4988053;28;20026;-76
2023/05/15 03:08:25;;;;;;;66.65;63.38;;;;;;;10.38;81.86;97729.63;5013312;28;20050;-76
2023/05/15 03:10:50;;;;;;;66.97;63.53;;;;;;;10.31;82.56;97719.06;4997306;28;20076;-76
2023/05/15 03:13:16;;;;;;;64.75;61.35;;;;;;;10.36;82.56;97718.31;4986372;28;20026;-75
2023/05/15 03:15:45;;;;;;;67.43;63.92;;;;;;;10.40;82.04;97714.03;4971528;28;20039;-75
2023/05/15 03:18:10;;;;;;;66.30;62.78;;;;;;;10.27;82.62;97717.13;4970281;28;20026;-77
2023/05/15 03:20:36;;;;;;;66.90;63.50;;;;;;;10.33;81.75;97706.16;4955758;28;20037;-78
2023/05/15 03:23:01;;;;;;;62.92;59.70;;;;;;;10.21;81.64;97702.00;4968047;28;20027;-75
2023/05/15 03:25:26;;;;;;;64.95;61.65;;;;;;;10.09;82.38;97715.56;5194185;23;20430;-75
2023/05/15 03:27:52;;;;;;;64.72;61.53;;;;;;;10.25;81.49;97719.25;5034604;28;20082;-76
2023/05/15 03:30:17;;;;;;;60.03;57.08;;;;;;;10.22;81.11;97709.00;5034584;28;20037;-76
2023/05/15 03:32:43;;;;;;;62.28;58.75;;;;;;;9.86;81.82;97706.97;5021984;28;20104;-76
2023/05/15 03:35:08;;;;;;;60.47;57.30;;;;;;;9.75;81.58;97720.28;5027507;28;20407;-75
2023/05/15 03:37:34;;;;;;;60.72;57.67;;;;;;;9.83;82.33;97707.44;5013109;28;20030;-75
2023/05/15 03:39:59;;;;;;;61.63;58.42;;;;;;;9.82;81.79;97713.91;5026164;28;20030;-75
2023/05/15 03:42:26;;;;;;;63.75;60.45;;;;;;;9.83;82.13;97704.75;5013219;28;20029;-75
2023/05/15 03:44:52;;;;;;;63.35;59.95;;;;;;;9.86;81.11;97715.03;5017201;28;20068;-75
2023/05/15 03:47:17;;;;;;;62.63;59.03;;;;;;;9.81;81.48;97723.03;5005598;28;20271;-75
2023/05/15 03:49:43;;;;;;;61.83;58.63;;;;;;;9.82;81.68;97713.91;5026386;28;20038;-75
2023/05/15 03:52:08;;;;;;;61.47;58.28;;;;;;;9.53;82.08;97722.16;5007610;28;20029;-74
2023/05/15 03:54:34;;;;;;;62.38;59.17;;;;;;;9.56;82.74;97716.28;5014799;28;20108;-75
2023/05/15 03:56:59;;;;;;;63.33;59.78;;;;;;;9.58;82.17;97719.53;5011933;28;20417;-75
2023/05/15 03:59:25;;;;;;;65.47;62.17;;;;;;;9.68;81.53;97719.66;4996437;28;20056;-74
2023/05/15 04:01:50;;;;;;;65.85;62.55;;;;;;;9.65;80.94;97709.41;5023426;28;20029;-75
2023/05/15 04:04:15;;;;;;;67.80;64.47;;;;;;;9.60;81.43;97700.47;5019962;28;20480;-75
2023/05/15 04:06:41;;;;;;;67.50;64.03;;;;;;;9.69;81.92;97699.78;5033629;28;20025;-75
2023/05/15 04:09:07;;;;;;;68.60;65.00;;;;;;;9.65;83.49;97709.41;5012200;28;20495;-75
2023/05/15 04:11:33;;;;;;;69.40;65.70;;;;;;;9.68;83.59;97708.88;5012756;28;20025;-75
2023/05/15 04:13:59;;;;;;;68.97;65.22;;;;;;;9.77;83.67;97705.78;5020084;28;20414;-75
2023/05/15 04:16:24;;;;;;;65.50;62.08;;;;;;;9.79;84.32;97711.72;5005729;28;20026;-75
2023/05/15 04:18:50;;;;;;;65.35;61.75;;;;;;;10.12;83.21;97709.72;5013575;28;20034;-75
2023/05/15 04:21:15;;;;;;;62.83;59.60;;;;;;;10.36;82.59;97704.84;5038728;28;20030;-75
2023/05/15 04:23:40;;;;;;;63.75;60.47;;;;;;;10.48;81.67;97702.78;5015455;28;20483;-75
2023/05/15 04:26:07;;;;;;;64.40;61.00;;;;;;;10.05;83.59;97708.25;5022105;28;20479;-74
2023/05/15 04:28:32;;;;;;;63.50;60.25;;;;;;;10.43;82.48;97705.44;5018600;28;20029;-75
2023/05/15 04:30:58;;;;;;;62.83;59.53;;;;;;;10.58;81.54;97713.66;5032035;28;20498;-75
2023/05/15 04:33:23;;;;;;;62.53;59.22;;;;;;;10.75;81.05;97703.56;5018388;28;20418;-75
2023/05/15 04:35:48;;;;;;;61.38;58.33;;;;;;;10.69;81.20;97699.19;5023482;28;20112;-75
2023/05/15 04:38:14;;;;;;;60.25;57.15;;;;;;;10.68;80.32;97702.97;5025219;28;20041;-75
2023/05/15 04:40:40;;;;;;;60.17;56.95;;;;;;;10.73;80.86;97705.72;5037805;28;20032;-75
2023/05/15 04:43:05;;;;;;;59.50;56.53;;;;;;;10.81;80.92;97712.47;5018096;28;20442;-75
2023/05/15 04:45:30;;;;;;;58.08;55.22;;;;;;;10.86;80.48;97710.66;5038940;28;20468;-75
2023/05/15 04:47:56;;;;;;;57.92;54.83;;;;;;;10.77;80.84;97709.50;5025154;28;20037;-75
2023/05/15 04:50:21;;;;;;;59.58;56.58;;;;;;;10.53;81.68;97713.59;5004243;28;20056;-74
2023/05/15 04:52:47;;;;;;;61.80;58.53;;;;;;;10.01;83.54;97707.13;5018179;28;20029;-75
2023/05/15 04:55:12;;;;;;;61.97;58.60;;;;;;;10.34;83.25;97709.66;5006599;28;20034;-74
2023/05/15 04:57:38;;;;;;;63.67;60.47;;;;;;;10.36;82.41;97710.22;5026040;28;20475;-75
2023/05/15 05:00:13;;;;;;;64.55;61.10;;;;;;;10.18;83.45;97718.63;4995061;28;20076;-75
2023/05/15 05:02:38;;;;;;;64.55;60.90;;;;;;;10.23;83.62;97705.25;5015560;28;20051;-74
2023/05/15 05:05:06;;;;;;;65.70;62.10;;;;;;;10.13;84.89;97710.50;5014599;28;20029;-74
2023/05/15 05:07:32;;;;;;;66.50;62.72;;;;;;;10.38;83.49;97710.78;5031375;28;20072;-73
2023/05/15 05:09:57;;;;;;;66.25;62.75;;;;;;;10.69;82.83;97701.88;5017360;28;20018;-73
2023/05/15 05:12:22;;;;;;;68.05;64.38;;;;;;;10.68;82.33;97707.53;5005132;28;20105;-74
2023/05/15 05:14:48;;;;;;;62.53;59.25;;;;;;;11.14;81.68;97709.50;5002715;28;20041;-72
2023/05/15 05:17:13;;;;;;;61.28;58.08;;;;;;;11.46;80.54;97704.03;5014678;28;20037;-74
2023/05/15 05:19:39;;;;;;;60.97;57.78;;;;;;;11.48;80.28;97709.97;5030774;28;20025;-74
2023/05/15 05:22:04;;;;;;;58.30;55.20;;;;;;;11.51;79.92;97698.66;5014190;28;20048;-74
2023/05/15 05:30:51;;;;;;;56.08;53.17;;;;;;;10.98;82.64;97681.66;4981224;28;20133;-74
2023/05/15 05:33:28;;;;;;;59.03;55.97;;;;;;;10.72;82.71;97670.94;5006917;28;20021;-76
2023/05/15 05:35:59;;;;;;;62.88;59.47;;;;;;;11.00;83.01;97692.16;5000267;28;20035;-76
2023/05/15 05:38:27;;;;;;;61.85;58.33;;;;;;;11.31;81.46;97706.63;5004429;28;20026;-75
2023/05/15 05:40:55;;;;;;;59.30;56.10;;;;;;;11.80;79.74;97678.31;4992499;28;20074;-75
2023/05/15 05:43:21;;;;;;;56.75;54.00;;;;;;;11.91;79.78;97704.25;5005339;28;20030;-76
2023/05/15 05:45:46;;;;;;;61.42;58.22;;;;;;;11.87;81.58;97705.88;4991278;28;20441;-75
2023/05/15 05:48:12;;;;;;;62.03;58.80;;;;;;;11.98;80.70;97706.69;4996911;28;20038;-75
2023/05/15 05:50:38;;;;;;;59.78;56.70;;;;;;;12.23;80.33;97704.88;4963874;28;20053;-74
2023/05/15 05:53:03;;;;;;;57.25;53.95;;;;;;;12.10;80.45;97705.41;4996130;28;20041;-76
2023/05/15 05:55:28;;;;;;;56.15;53.05;;;;;;;12.19;79.60;97709.19;4994292;28;20492;-76
2023/05/15 05:57:54;;;;;;;55.15;52.25;;;;;;;12.10;79.68;97705.41;4976348;28;20038;-76
2023/05/15 06:00:19;;;;;;;52.67;49.88;;;;;;;12.12;79.04;97714.03;4994234;28;20061;-76
2023/05/15 06:02:45;;;;;;;53.67;50.97;;;;;;;12.33;79.42;97715.72;5005149;28;20033;-76
2023/05/15 06:05:10;;;;;;;52.65;49.95;;;;;;;12.73;77.76;97709.53;4985473;28;20022;-76
2023/05/15 06:07:36;;;;;;;49.20;46.60;;;;;;;12.68;77.65;97711.41;5005538;28;20047;-76
2023/05/15 06:10:01;;;;;;;48.88;46.28;;;;;;;12.99;76.73;97704.94;4962388;28;20025;-76
2023/05/15 06:12:27;;;;;;;47.72;45.22;;;;;;;12.71;77.52;97702.78;4990223;28;20464;-76
2023/05/15 06:14:52;;;;;;;50.95;48.20;;;;;;;12.88;77.59;97706.03;4985058;28;20034;-76
2023/05/15 06:17:18;;;;;;;52.97;50.20;;;;;;;12.92;77.80;97699.81;5007010;28;20575;-76
2023/05/15 06:19:43;;;;;;;49.83;47.03;;;;;;;13.11;77.06;97705.50;5000894;28;20114;-76
2023/05/15 06:22:09;;;;;;;49.13;46.53;;;;;;;12.65;77.77;97704.66;4994342;28;20137;-76
2023/05/15 06:24:34;;;;;;;50.88;48.17;;;;;;;12.51;78.20;97705.50;4995980;28;20026;-76
2023/05/15 06:27:00;;;;;;;52.85;49.95;;;;;;;12.55;78.71;97711.97;4998160;28;20121;-75
2023/05/15 06:29:25;;;;;;;49.38;46.78;;;;;;;12.66;77.63;97705.47;5000667;28;20107;-76
2023/05/15 06:31:51;;;;;;;48.40;45.13;;;;;;;12.84;77.65;97713.03;4981868;28;20049;-76
2023/05/15 06:34:16;;;;;;;46.33;43.83;;;;;;;13.10;76.96;97710.09;4993878;28;20026;-76
2023/05/15 06:36:42;;;;;;;43.70;41.30;;;;;;;13.21;76.34;97694.66;5002994;28;20041;-75
2023/05/15 06:39:09;;;;;;;44.03;41.53;;;;;;;13.32;76.34;97701.69;4976862;28;20469;-77
2023/05/15 06:41:35;;;;;;;37.70;35.40;;;;;;;13.49;75.36;97702.16;5000303;28;20069;-77
2023/05/15 06:44:00;;;;;;;41.03;38.72;;;;;;;13.15;76.53;97695.75;4988229;28;20026;-77
2023/05/15 06:46:26;;;;;;;45.55;43.05;;;;;;;13.35;76.74;97698.41;4997303;28;20385;-77
2023/05/15 06:48:51;;;;;;;40.53;38.15;;;;;;;13.48;76.25;97700.56;4988562;28;20133;-76
2023/05/15 06:51:17;;;;;;;35.75;33.63;;;;;;;13.49;74.77;97680.53;5007569;28;20034;-77
2023/05/15 06:53:42;;;;;;;34.92;32.55;;;;;;;14.00;73.51;97688.47;4977910;28;20037;-76
2023/05/15 06:56:08;;;;;;;28.48;26.67;;;;;;;13.66;73.63;97689.13;4994516;28;20042;-78
2023/05/15 06:58:33;;;;;;;30.95;29.05;;;;;;;13.88;73.24;97695.00;4975130;28;20022;-76
2023/05/15 07:01:00;;;;;;;23.77;21.52;;;;;;;13.97;72.24;97694.41;4992974;28;20117;-76
2023/05/15 07:03:25;;;;;;;24.08;22.58;;;;;;;14.41;72.17;97681.75;5006208;28;20436;-76
2023/05/15 07:05:52;;;;;;;22.77;21.38;;;;;;;14.13;72.72;97695.97;5009417;28;20033;-76
2023/05/15 07:08:17;;;;;;;23.52;21.83;;;;;;;14.34;73.77;97692.06;5013897;28;20044;-76
2023/05/15 07:10:42;;;;;;;26.75;25.15;;;;;;;14.04;73.52;97703.06;4993912;28;20050;-77
2023/05/15 07:13:08;;;;;;;20.08;18.58;;;;;;;14.11;71.95;97703.56;5003877;28;20034;-76
2023/05/15 07:15:33;;;;;;;21.42;19.75;;;;;;;14.26;72.34;97690.72;4997540;28;20096;-76
2023/05/15 07:17:59;;;;;;;18.92;17.52;;;;;;;14.25;71.46;97691.03;4993979;28;20028;-76
2023/05/15 07:20:24;;;;;;;23.20;21.65;;;;;;;14.20;73.72;97696.47;4974462;28;20408;-76
2023/05/15 07:22:49;;;;;;;21.45;19.85;;;;;;;14.40;72.15;97696.34;5004772;28;20054;-76
2023/05/15 07:25:27;;;;;;;18.13;16.83;;;;;;;14.37;71.82;97651.72;5042907;22;20114;-76
2023/05/15 07:28:02;;;;;;;23.80;22.20;;;;;;;14.70;71.46;97666.34;5053266;28;20044;-76
2023/05/15 07:30:40;;;;;;;18.90;17.60;;;;;;;14.85;70.01;97677.06;5053257;28;20433;-76
2023/05/15 07:33:32;;;;;;;16.15;14.88;;;;;;;15.13;71.21;97687.09;5051500;28;20064;-76
2023/05/15 07:36:12;;;;;;;13.20;12.20;;;;;;;14.81;69.03;97648.91;5040585;28;20507;-76
2023/05/15 07:38:43;;;;;;;17.97;16.63;;;;;;;14.97;68.99;97663.94;5041296;28;20398;-76
2023/05/15 07:41:14;;;;;;;13.23;11.95;;;;;;;14.85;68.98;97658.09;5039762;28;21018;-76
2023/05/15 07:43:42;;;;;;;12.85;11.60;;;;;;;14.80;68.82;97650.00;5032508;28;20044;-76
2023/05/15 07:46:07;;;;;;;12.93;11.65;;;;;;;14.97;69.08;97674.78;5047375;28;20496;-76
2023/05/15 07:48:32;;;;;;;19.65;16.15;;;;;;;15.44;67.73;97675.94;5044327;28;20069;-76
2023/05/15 07:50:58;;;;;;;12.25;11.07;;;;;;;15.23;67.72;97684.31;5030993;28;20024;-75
2023/05/15 07:53:23;;;;;;;11.32;10.07;;;;;;;15.31;68.51;97679.34;5044338;28;20033;-76
2023/05/15 07:55:49;;;;;;;11.90;10.75;;;;;;;15.68;67.51;97674.09;5046905;28;20075;-76
2023/05/15 07:58:14;;;;;;;12.73;11.73;;;;;;;15.58;69.35;97676.91;5040481;28;20041;-76
2023/05/15 08:00:39;;;;;;;11.15;10.15;;;;;;;15.80;67.25;97672.56;5022492;28;20129;-76
2023/05/15 08:03:05;;;;;;;9.80;8.85;;;;;;;16.03;65.85;97684.50;5027654;28;20041;-76
2023/05/15 08:05:30;;;;;;;8.20;7.40;;;;;;;15.81;63.99;97684.22;5030219;28;20033;-76
2023/05/15 08:07:56;;;;;;;13.35;8.65;;;;;;;15.57;65.22;97661.69;5045794;28;20573;-76
2023/05/15 08:10:21;;;;;;;9.90;7.43;;;;;;;15.89;63.40;97675.44;5026558;28;20056;-75
2023/05/15 08:12:47;;;;;;;6.93;6.25;;;;;;;16.42;60.68;97666.00;5032248;28;20718;-76
2023/05/15 08:15:13;;;;;;;8.65;6.88;;;;;;;16.23;63.50;97670.63;5045571;28;20029;-76
2023/05/15 08:17:38;;;;;;;7.38;6.78;;;;;;;16.13;62.33;97670.75;5045285;28;20117;-76
2023/05/15 08:20:04;;;;;;;7.28;6.63;;;;;;;16.19;61.70;97672.31;5028974;28;20013;-76
2023/05/15 08:22:30;;;;;;;7.60;6.80;;;;;;;16.34;58.36;97672.09;5045745;28;20103;-76
2023/05/15 08:24:56;;;;;;;7.82;7.10;;;;;;;16.33;60.04;97648.75;5055403;23;20395;-76
2023/05/15 08:27:22;;;;;;;7.30;6.60;;;;;;;16.33;60.22;97670.50;5020138;28;20041;-77
2023/05/15 08:29:47;;;;;;;7.15;6.45;;;;;;;16.96;59.37;97664.63;5012217;28;20064;-76
2023/05/15 08:32:13;;;;;;;7.35;6.60;;;;;;;16.78;60.67;97671.72;5038919;28;20041;-72
2023/05/15 08:34:38;;;;;;;8.90;7.75;;;;;;;17.36;61.21;97666.63;5015056;28;20112;-76
2023/05/15 08:37:05;;;;;;;7.13;6.43;;;;;;;17.66;57.44;97655.19;5012434;28;20038;-76
2023/05/15 08:39:30;;;;;;;7.20;6.32;;;;;;;17.38;56.59;97653.53;4982833;28;20030;-76
2023/05/15 08:42:20;;;;;;;7.93;6.85;;;;;;;17.63;56.70;97650.34;5011832;28;20037;-73
2023/05/15 08:47:21;;;;;;;6.90;6.30;;;;;;;17.70;56.27;97639.84;4994135;23;20057;-76
2023/05/15 08:50:11;;;;;;;7.03;6.00;;;;;;;17.50;55.63;97640.22;4989539;28;20027;-77
2023/05/15 08:52:37;;;;;;;6.65;5.93;;;;;;;17.44;53.09;97649.59;4998018;28;20030;-77
2023/05/15 08:55:03;;;;;;;8.40;6.15;;;;;;;17.57;54.33;97648.84;4999666;28;20472;-75
2023/05/15 08:57:28;;;;;;;6.72;5.68;;;;;;;17.85;55.41;97631.34;5011441;28;20171;-75
2023/05/15 08:59:55;;;;;;;6.25;5.60;;;;;;;18.27;51.37;97632.06;5028027;28;20105;-76
2023/05/15 09:02:21;;;;;;;5.40;4.90;;;;;;;18.08;52.19;97639.59;4980640;28;20121;-76
2023/05/15 09:04:46;;;;;;;6.22;5.60;;;;;;;17.12;53.40;97636.03;4991874;28;20632;-76
2023/05/15 09:07:14;;;;;;;5.72;5.22;;;;;;;17.17;53.99;97641.41;5011645;28;20056;-76
2023/05/15 09:09:40;;;;;;;5.70;5.15;;;;;;;17.03;56.02;97635.13;5003148;28;20049;-76
2023/05/15 09:12:08;;;;;;;6.20;5.60;;;;;;;16.70;60.57;97637.06;4975784;28;20080;-76
2023/05/15 09:14:33;;;;;;;8.25;6.40;;;;;;;16.35;61.40;97641.13;5019587;28;20052;-76
2023/05/15 09:16:59;;;;;;;9.43;6.32;;;;;;;16.18;61.62;97640.00;5009508;28;20038;-76
2023/05/15 09:19:25;;;;;;;6.88;6.18;;;;;;;16.09;63.38;97631.72;5003721;28;20085;-76
2023/05/15 09:21:51;;;;;;;6.88;6.13;;;;;;;16.47;62.84;97633.31;5013139;28;20037;-76
2023/05/15 09:46:24;;;;;;;6.97;6.25;;;;;;;18.54;60.70;97611.00;4906096;29;20050;-76
2023/05/15 09:56:54;;;;;;;7.22;5.50;;;;;;;17.62;56.22;97591.53;4893821;29;20097;-76
2023/05/15 10:00:03;;;;;;;7.40;6.18;;;;;;;18.66;54.19;97610.44;4894485;29;20048;-76
2023/05/15 10:07:21;;;;;;;6.65;5.95;;;;;;;19.24;49.76;97572.06;4863105;29;20045;-76
2023/05/15 10:09:55;;;;;;;5.90;5.40;;;;;;;18.88;48.76;97569.47;4865491;29;20063;-76
2023/05/15 10:16:46;;;;;;;6.20;5.03;;;;;;;17.88;48.46;97567.25;4846499;29;20548;-76
2023/05/15 10:20:05;;;;;;;7.03;5.07;;;;;;;17.92;51.69;97566.34;4799105;29;20055;-76
2023/05/15 10:23:28;;;;;;;5.85;5.15;;;;;;;18.14;48.92;97567.50;4793603;29;20084;-76
2023/05/15 10:26:57;;;;;;;5.50;5.00;;;;;;;19.00;45.75;97597.00;4868156;29;20051;-76
2023/05/15 10:30:18;;;;;;;7.15;5.25;;;;;;;18.14;49.12;97600.19;4943518;28;20104;-76
2023/05/15 10:37:55;;;;;;;5.43;4.93;;;;;;;18.47;46.88;97566.19;4978739;28;20518;-76
2023/05/15 10:41:06;;;;;;;6.38;5.22;;;;;;;18.19;49.31;97554.56;4943710;28;20114;-76
2023/05/15 10:47:10;;;;;;;5.50;5.00;;;;;;;16.75;53.18;97579.06;4989805;28;20399;-76
2023/05/15 10:49:35;;;;;;;7.53;5.53;;;;;;;16.87;52.75;97592.97;5011606;28;20117;-76
2023/05/15 10:52:01;;;;;;;5.63;4.72;;;;;;;16.96;52.01;97597.44;4994319;28;20022;-76
2023/05/15 10:54:28;;;;;;;4.45;4.05;;;;;;;17.14;49.59;97593.00;4981603;28;20034;-76
2023/05/15 10:56:57;;;;;;;4.60;3.90;;;;;;;17.50;46.96;97584.97;4994022;28;20025;-76
2023/05/15 10:59:30;;;;;;;4.75;4.35;;;;;;;17.80;46.85;97574.25;4978037;28;20038;-76
2023/05/15 11:01:56;;;;;;;4.60;4.13;;;;;;;17.88;47.54;97575.44;4977746;28;20399;-76
2023/05/15 11:04:22;;;;;;;5.15;4.30;;;;;;;17.85;49.09;97574.13;4993978;28;20030;-75
2023/05/15 11:06:48;;;;;;;7.32;4.93;;;;;;;18.47;48.67;97571.63;5005583;28;20038;-76
2023/05/15 11:09:20;;;;;;;5.63;4.97;;;;;;;18.14;49.57;97573.75;5002167;28;20056;-76
2023/05/15 11:11:55;;;;;;;5.10;4.60;;;;;;;18.41;48.36;97575.59;4997393;28;20060;-76
2023/05/15 11:14:22;;;;;;;7.55;5.30;;;;;;;18.30;48.99;97568.75;5014649;28;20033;-76
2023/05/15 11:16:51;;;;;;;5.63;5.13;;;;;;;18.47;49.34;97574.34;4984093;28;20123;-76
2023/05/15 11:19:22;;;;;;;6.35;5.32;;;;;;;18.24;49.39;97578.16;5014180;28;20033;-76
2023/05/15 11:21:55;;;;;;;6.97;5.32;;;;;;;18.21;50.90;97578.78;4992273;28;20119;-78
2023/05/15 11:24:44;;;;;;;6.15;5.35;;;;;;;18.85;51.02;97581.03;4994033;28;20084;-76
2023/05/15 11:27:12;;;;;;;6.28;4.28;;;;;;;18.88;49.89;97572.19;4998024;28;20033;-76
2023/05/15 11:30:09;;;;;;;8.18;5.25;;;;;;;18.71;49.89;97577.59;4980949;28;20022;-76
2023/05/15 11:32:48;;;;;;;5.55;5.03;;;;;;;18.04;53.51;97581.38;4997986;28;20507;-75
2023/05/15 11:35:27;;;;;;;6.15;4.95;;;;;;;17.70;55.46;97588.09;4992111;28;20046;-76
2023/05/15 11:37:58;;;;;;;5.45;4.57;;;;;;;16.98;52.29;97605.28;5002531;28;20045;-77
2023/05/15 11:40:28;;;;;;;6.63;4.70;;;;;;;16.10;57.07;97614.31;4997347;28;20045;-77
2023/05/15 11:43:25;;;;;;;5.85;5.00;;;;;;;15.29;64.79;97632.69;5008470;28;20034;-76
2023/05/15 11:45:54;;;;;;;5.65;5.15;;;;;;;14.56;68.70;97629.34;5003966;28;20069;-76
2023/05/15 11:48:21;;;;;;;6.65;5.82;;;;;;;15.04;68.04;97634.59;5012825;28;20095;-76
2023/05/15 11:50:46;;;;;;;8.07;6.65;;;;;;;15.15;67.88;97621.72;4987221;28;20116;-76
2023/05/15 11:53:12;;;;;;;7.72;6.63;;;;;;;15.08;68.58;97611.22;4980549;28;20056;-76
2023/05/15 11:55:40;;;;;;;21.83;20.48;;;;;;;15.24;73.35;97599.09;4996411;28;20022;-76
2023/05/15 11:58:11;;;;;;;36.80;34.58;;;;;;;15.75;74.14;97590.38;4983484;28;20128;-76
2023/05/15 12:00:36;;;;;;;38.67;36.58;;;;;;;15.95;72.74;97581.94;5009339;28;20092;-77
2023/05/15 12:03:02;;;;;;;20.70;19.33;;;;;;;16.64;69.28;97578.41;5012569;28;20025;-76
2023/05/15 12:05:28;;;;;;;11.82;10.93;;;;;;;17.42;65.60;97578.31;4996210;28;20372;-76
2023/05/15 12:07:53;;;;;;;12.88;11.98;;;;;;;18.02;64.66;97568.03;4996191;28;20026;-76
2023/05/15 12:10:19;;;;;;;9.43;8.55;;;;;;;18.49;64.21;97569.41;5015209;28;20041;-77
2023/05/15 12:12:47;;;;;;;9.70;8.80;;;;;;;19.57;63.67;97567.06;4999414;28;20365;-76
2023/05/15 12:15:14;;;;;;;5.70;5.20;;;;;;;19.81;58.34;97561.97;5002381;28;20411;-76
2023/05/15 12:17:40;;;;;;;5.30;4.47;;;;;;;20.77;52.86;97556.97;5000842;28;20368;-75
2023/05/15 12:20:10;;;;;;;4.90;4.50;;;;;;;20.51;54.02;97569.91;4995873;28;20068;-76
2023/05/15 12:22:41;;;;;;;4.70;4.30;;;;;;;20.80;53.68;97564.53;4992726;28;20037;-76
2023/05/15 12:25:07;;;;;;;5.53;4.63;;;;;;;20.32;51.05;97562.03;5000306;28;20511;-76
2023/05/15 12:27:34;;;;;;;6.80;4.72;;;;;;;20.36;51.67;97559.44;4995959;28;20030;-77
2023/05/15 12:30:00;;;;;;;6.13;5.30;;;;;;;20.19;51.40;97551.22;4980755;28;20096;-76
2023/05/15 12:32:26;;;;;;;5.72;5.00;;;;;;;20.11;48.87;97550.09;4985086;28;20030;-76
2023/05/15 12:34:51;;;;;;;7.50;5.50;;;;;;;20.22;53.08;97562.34;5000158;28;20053;-76
2023/05/15 12:37:19;;;;;;;6.43;5.10;;;;;;;20.24;50.14;97565.56;5012086;28;20022;-77